Schneifelwetter: Wetterstation Hallschlag, 537 m . NN
Wetterdaten: Samstag, 18.06.2011
Datum Zeit Temp. A. Feuchte A. Luftdruck Regen Wind Richtung Richtung Sonnenschein Helligkeit T Regen Taupunkt Windchill
18.06.2011 00:10 11,3 C 87 % 1004 hPa 0,0 l/m 0,0 km/h (0 Bft) NW 305 0 min 0 lux 0,00 min 9,2 C 11,3 C
18.06.2011 00:25 11,3 C 88 % 1004 hPa 0,0 l/m 8,3 km/h (2 Bft) S-SO22.5 165 0 min 0 lux 0,00 min 9,4 C 10,0 C
18.06.2011 00:40 11,4 C 89 % 1004 hPa 0,0 l/m 11,1 km/h (2 Bft) S22.5 170 0 min 0 lux 0,00 min 9,7 C 8,6 C
18.06.2011 00:55 11,4 C 90 % 1004 hPa 0,0 l/m 14,2 km/h (3 Bft) S22.5 180 0 min 0 lux 0,00 min 9,8 C 7,2 C
18.06.2011 01:10 11,5 C 91 % 1003 hPa 0,9 l/m 16,3 km/h (3 Bft) S22.5 170 0 min 0 lux 15,00 min 10,1 C 6,5 C
18.06.2011 01:25 11,7 C 92 % 1003 hPa 0,0 l/m 18,7 km/h (3 Bft) S22.5 180 0 min 0 lux 0,00 min 10,4 C 5,9 C
18.06.2011 01:40 12,0 C 93 % 1003 hPa 0,0 l/m 32,2 km/h (5 Bft) S-SW45 205 0 min 0 lux 0,00 min 10,9 C 3,1 C
18.06.2011 01:55 12,1 C 92 % 1003 hPa 0,0 l/m 27,5 km/h (4 Bft) SW45 230 0 min 0 lux 0,00 min 10,8 C 4,1 C
18.06.2011 02:10 12,2 C 92 % 1003 hPa 0,0 l/m 27,7 km/h (4 Bft) SW45 215 0 min 0 lux 0,00 min 10,9 C 4,2 C
18.06.2011 02:25 12,3 C 92 % 1003 hPa 0,0 l/m 22,8 km/h (4 Bft) S-SW45 210 0 min 0 lux 0,00 min 11,0 C 5,5 C
18.06.2011 02:40 12,3 C 93 % 1003 hPa 0,0 l/m 26,5 km/h (4 Bft) S-SW45 205 0 min 0 lux 0,00 min 11,2 C 4,6 C
18.06.2011 02:55 12,3 C 93 % 1003 hPa 0,0 l/m 38,4 km/h (5 Bft) SW45 230 0 min 0 lux 0,00 min 11,2 C 2,5 C
18.06.2011 03:10 12,2 C 93 % 1003 hPa 0,0 l/m 31,2 km/h (5 Bft) W-SW45 245 0 min 0 lux 0,00 min 11,1 C 3,5 C
18.06.2011 03:25 12,2 C 93 % 1003 hPa 0,0 l/m 29,5 km/h (5 Bft) W-SW67.5 240 0 min 0 lux 0,00 min 11,1 C 3,8 C
18.06.2011 03:40 12,2 C 92 % 1002 hPa 0,6 l/m 34,4 km/h (5 Bft) W-SW67.5 250 0 min 0 lux 15,00 min 10,9 C 3,0 C
18.06.2011 03:55 12,1 C 91 % 1002 hPa 0,0 l/m 43,8 km/h (6 Bft) SW45 230 0 min 0 lux 0,00 min 10,7 C 1,5 C
18.06.2011 04:10 11,9 C 92 % 1003 hPa 0,0 l/m 36,8 km/h (5 Bft) W-SW45 240 0 min 0 lux 0,00 min 10,6 C 2,2 C
18.06.2011 04:25 11,6 C 93 % 1003 hPa 0,0 l/m 40,2 km/h (6 Bft) W45 260 0 min 0 lux 0,00 min 10,5 C 1,2 C
18.06.2011 04:40 11,4 C 93 % 1003 hPa 0,0 l/m 34,1 km/h (5 Bft) W-SW45 240 0 min 0 lux 0,00 min 10,3 C 1,9 C
18.06.2011 04:55 11,3 C 94 % 1003 hPa 0,0 l/m 36,5 km/h (5 Bft) SW45 230 0 min 0 lux 0,00 min 10,4 C 1,3 C
18.06.2011 05:10 11,3 C 94 % 1003 hPa 0,0 l/m 33,4 km/h (5 Bft) W-SW67.5 245 0 min 71 lux 0,00 min 10,4 C 1,8 C
18.06.2011 05:25 11,2 C 94 % 1003 hPa 0,0 l/m 44,5 km/h (6 Bft) SW67.5 220 0 min 218 lux 0,00 min 10,3 C 0,1 C
18.06.2011 05:40 11,2 C 94 % 1003 hPa 0,0 l/m 41,6 km/h (6 Bft) SW45 225 0 min 1,73 klux 0,00 min 10,3 C 0,5 C
18.06.2011 05:55 11,1 C 94 % 1003 hPa 0,0 l/m 28,4 km/h (4 Bft) SW67.5 230 0 min 1,72 klux 0,00 min 10,2 C 2,5 C
18.06.2011 06:10 11,0 C 94 % 1003 hPa 0,0 l/m 38,9 km/h (6 Bft) SW45 230 0 min 2,01 klux 0,00 min 10,1 C 0,5 C
18.06.2011 06:25 11,2 C 94 % 1003 hPa 0,0 l/m 36,4 km/h (5 Bft) W-SW45 240 0 min 4,61 klux 0,00 min 10,3 C 1,2 C
18.06.2011 06:40 11,1 C 93 % 1003 hPa 0,0 l/m 47,5 km/h (6 Bft) W-SW67.5 255 0 min 6,99 klux 0,00 min 10,0 C -0,4 C
18.06.2011 06:55 11,0 C 93 % 1003 hPa 0,0 l/m 39,1 km/h (6 Bft) W-SW45 240 0 min 5,39 klux 0,00 min 9,9 C 0,5 C
18.06.2011 07:10 10,8 C 93 % 1003 hPa 0,0 l/m 42,3 km/h (6 Bft) W67.5 260 0 min 4,93 klux 0,00 min 9,7 C -0,2 C
18.06.2011 07:25 11,0 C 93 % 1003 hPa 0,9 l/m 40,3 km/h (6 Bft) W-SW45 245 0 min 9,00 klux 15,00 min 9,9 C 0,3 C
18.06.2011 07:40 11,1 C 92 % 1003 hPa 0,0 l/m 35,5 km/h (5 Bft) W-SW45 240 0 min 8,34 klux 0,00 min 9,8 C 1,2 C
18.06.2011 07:55 11,3 C 91 % 1003 hPa 0,0 l/m 43,0 km/h (6 Bft) W45 260 0 min 20,1 klux 0,00 min 9,9 C 0,4 C
18.06.2011 08:10 11,2 C 89 % 1003 hPa 0,0 l/m 49,0 km/h (6 Bft) W-SW67.5 240 0 min 13,3 klux 0,00 min 9,5 C -0,4 C
18.06.2011 08:25 11,4 C 89 % 1004 hPa 0,0 l/m 36,0 km/h (5 Bft) W-SW45 240 0 min 21,3 klux 0,00 min 9,7 C 1,6 C
18.06.2011 08:40 11,4 C 87 % 1004 hPa 0,0 l/m 37,3 km/h (5 Bft) W-SW67.5 250 0 min 22,4 klux 0,00 min 9,3 C 1,4 C
18.06.2011 08:55 11,2 C 83 % 1004 hPa 0,0 l/m 36,2 km/h (5 Bft) W-SW22.5 255 0 min 20,0 klux 0,00 min 8,4 C 1,2 C
18.06.2011 09:10 10,2 C 85 % 1004 hPa 0,0 l/m 34,7 km/h (5 Bft) W-SW45 255 0 min 6,57 klux 0,00 min 7,8 C 0,0 C
18.06.2011 09:25 9,9 C 86 % 1004 hPa 0,0 l/m 34,8 km/h (5 Bft) W-SW45 250 0 min 13,7 klux 0,00 min 7,7 C -0,4 C
18.06.2011 09:40 10,3 C 86 % 1004 hPa 0,0 l/m 31,7 km/h (5 Bft) W-SW45 255 0 min 15,6 klux 0,00 min 8,1 C 0,7 C
18.06.2011 10:01 10,7 C 85 % 1004 hPa 0,0 l/m 33,4 km/h (5 Bft) W-SW45 240 0 min 34,8 klux 0,00 min 8,3 C 1,0 C
18.06.2011 10:16 11,8 C 80 % 1004 hPa 0,0 l/m 48,4 km/h (6 Bft) W-SW67.5 250 0 min 59,6 klux 0,00 min 8,5 C 0,6 C
18.06.2011 10:31 11,7 C 80 % 1005 hPa 0,0 l/m 39,7 km/h (6 Bft) W45 260 0 min 32,1 klux 0,00 min 8,4 C 1,5 C
18.06.2011 10:46 11,9 C 78 % 1005 hPa 0,0 l/m 38,4 km/h (5 Bft) W-SW45 250 0 min 31,9 klux 0,00 min 8,2 C 1,9 C
18.06.2011 11:02 11,3 C 78 % 1005 hPa 0,0 l/m 40,2 km/h (6 Bft) W-SW45 255 0 min 20,9 klux 0,00 min 7,6 C 0,8 C
18.06.2011 11:16 11,8 C 80 % 1005 hPa 0,0 l/m 37,4 km/h (5 Bft) W-SW45 255 0 min 33,0 klux 0,00 min 8,5 C 1,9 C
18.06.2011 11:31 12,2 C 77 % 1005 hPa 0,0 l/m 41,0 km/h (6 Bft) W-SW67.5 255 0 min 45,4 klux 0,00 min 8,3 C 2,0 C
18.06.2011 11:46 13,2 C 75 % 1005 hPa 0,0 l/m 42,8 km/h (6 Bft) W45 265 15 min 107 klux 0,00 min 8,9 C 3,3 C
18.06.2011 12:01 14,1 C 72 % 1005 hPa 0,0 l/m 43,7 km/h (6 Bft) W-SW67.5 245 15 min 98,8 klux 0,00 min 9,1 C 4,6 C
18.06.2011 12:16 13,1 C 71 % 1005 hPa 0,0 l/m 44,3 km/h (6 Bft) W-SW45 250 0 min 33,5 klux 0,00 min 8,0 C 3,0 C
18.06.2011 12:31 13,3 C 69 % 1005 hPa 0,0 l/m 52,7 km/h (7 Bft) W-SW67.5 255 15 min 62,0 klux 0,00 min 7,7 C 2,5 C
18.06.2011 12:46 13,2 C 71 % 1005 hPa 0,0 l/m 49,8 km/h (6 Bft) W45 265 15 min 126 klux 0,00 min 8,1 C 2,6 C
18.06.2011 13:01 14,1 C 70 % 1005 hPa 0,0 l/m 57,5 km/h (7 Bft) W45 260 15 min 102 klux 0,00 min 8,7 C 3,5 C
18.06.2011 13:16 15,0 C 68 % 1005 hPa 0,0 l/m 51,9 km/h (7 Bft) W45 270 15 min 104 klux 0,00 min 9,1 C 5,2 C
18.06.2011 13:31 15,0 C 66 % 1005 hPa 0,0 l/m 46,9 km/h (6 Bft) W-SW67.5 255 0 min 51,7 klux 0,00 min 8,7 C 5,6 C
18.06.2011 13:46 14,4 C 66 % 1005 hPa 0,0 l/m 41,7 km/h (6 Bft) W-SW45 245 15 min 106 klux 0,00 min 8,1 C 5,2 C
18.06.2011 14:01 14,0 C 67 % 1005 hPa 0,0 l/m 40,1 km/h (6 Bft) W-SW45 250 0 min 34,3 klux 0,00 min 8,0 C 4,8 C
18.06.2011 14:17 14,0 C 67 % 1005 hPa 0,0 l/m 35,9 km/h (5 Bft) W-SW45 255 16 min 105 klux 0,00 min 8,0 C 5,4 C
18.06.2011 14:31 15,2 C 64 % 1005 hPa 0,0 l/m 33,9 km/h (5 Bft) W-SW45 245 14 min 114 klux 0,00 min 8,4 C 7,4 C
18.06.2011 14:46 15,2 C 63 % 1005 hPa 0,0 l/m 44,3 km/h (6 Bft) W67.5 260 15 min 107 klux 0,00 min 8,2 C 6,2 C
18.06.2011 15:01 14,2 C 70 % 1005 hPa 0,3 l/m 38,6 km/h (5 Bft) W-SW22.5 245 15 min 102 klux 15,00 min 8,8 C 5,3 C
18.06.2011 15:16 14,8 C 66 % 1005 hPa 0,0 l/m 42,6 km/h (6 Bft) SW45 230 0 min 45,4 klux 0,00 min 8,5 C 5,7 C
18.06.2011 15:31 14,5 C 66 % 1005 hPa 0,0 l/m 42,7 km/h (6 Bft) W45 260 15 min 101 klux 0,00 min 8,2 C 5,3 C
18.06.2011 15:47 15,0 C 64 % 1005 hPa 0,0 l/m 38,4 km/h (5 Bft) W-SW45 255 16 min 91,3 klux 0,00 min 8,2 C 6,5 C
18.06.2011 16:01 15,3 C 64 % 1005 hPa 0,0 l/m 38,6 km/h (5 Bft) SW45 235 14 min 66,4 klux 0,00 min 8,5 C 6,9 C
18.06.2011 16:16 14,4 C 66 % 1005 hPa 0,0 l/m 43,5 km/h (6 Bft) W-SW45 245 0 min 33,2 klux 0,00 min 8,1 C 5,0 C
18.06.2011 16:31 11,8 C 73 % 1006 hPa 0,6 l/m 46,8 km/h (6 Bft) W-SW67.5 245 0 min 16,2 klux 15,00 min 7,1 C 0,8 C
18.06.2011 16:46 10,8 C 80 % 1006 hPa 0,0 l/m 36,3 km/h (5 Bft) SW45 225 0 min 16,8 klux 0,00 min 7,5 C 0,6 C
18.06.2011 17:01 10,6 C 86 % 1006 hPa 1,8 l/m 33,8 km/h (5 Bft) SW45 230 15 min 82,3 klux 15,00 min 8,4 C 0,8 C
18.06.2011 17:16 11,6 C 83 % 1006 hPa 0,3 l/m 29,0 km/h (5 Bft) W-SW67.5 255 0 min 56,5 klux 15,00 min 8,8 C 3,1 C
18.06.2011 17:32 12,6 C 81 % 1006 hPa 0,0 l/m 36,4 km/h (5 Bft) W22.5 265 16 min 79,1 klux 0,00 min 9,4 C 3,2 C
18.06.2011 17:46 12,7 C 78 % 1006 hPa 0,0 l/m 35,3 km/h (5 Bft) W-SW45 250 14 min 67,0 klux 0,00 min 9,0 C 3,6 C
18.06.2011 18:01 12,9 C 77 % 1006 hPa 0,0 l/m 35,6 km/h (5 Bft) SW45 235 15 min 69,2 klux 0,00 min 9,0 C 3,8 C
18.06.2011 18:16 12,4 C 77 % 1006 hPa 0,0 l/m 35,3 km/h (5 Bft) W-SW45 240 0 min 30,8 klux 0,00 min 8,5 C 3,1 C
18.06.2011 18:31 12,2 C 78 % 1006 hPa 0,0 l/m 31,3 km/h (5 Bft) W-SW45 250 0 min 39,1 klux 0,00 min 8,5 C 3,5 C
18.06.2011 18:46 12,4 C 77 % 1006 hPa 0,0 l/m 31,7 km/h (5 Bft) W45 260 0 min 28,2 klux 0,00 min 8,5 C 3,7 C
18.06.2011 19:02 12,3 C 75 % 1006 hPa 0,0 l/m 33,2 km/h (5 Bft) W-SW45 250 0 min 18,9 klux 0,00 min 8,0 C 3,3 C
18.06.2011 19:01 12,3 C 75 % 1006 hPa 0,0 l/m 33,2 km/h (5 Bft) W-SW45 250 0 min 18,9 klux 0,00 min 8,0 C 3,3 C
18.06.2011 19:16 12,5 C 73 % 1006 hPa 0,0 l/m 33,2 km/h (5 Bft) W-SW45 245 0 min 33,8 klux 0,00 min 7,8 C 3,6 C
18.06.2011 19:31 12,1 C 75 % 1006 hPa 0,0 l/m 34,8 km/h (5 Bft) W-SW45 240 0 min 17,4 klux 0,00 min 7,8 C 2,8 C
18.06.2011 19:46 11,9 C 77 % 1006 hPa 0,0 l/m 28,0 km/h (4 Bft) SW45 225 0 min 19,0 klux 0,00 min 8,0 C 3,7 C
18.06.2011 20:01 11,6 C 76 % 1006 hPa 0,0 l/m 33,0 km/h (5 Bft) SW45 235 0 min 28,9 klux 0,00 min 7,5 C 2,3 C
18.06.2011 20:16 11,2 C 77 % 1006 hPa 0,0 l/m 28,1 km/h (4 Bft) W-SW45 240 0 min 25,7 klux 0,00 min 7,3 C 2,7 C
18.06.2011 20:31 11,0 C 78 % 1006 hPa 0,0 l/m 26,6 km/h (4 Bft) SW45 220 0 min 20,5 klux 0,00 min 7,3 C 2,8 C
18.06.2011 20:46 10,6 C 78 % 1006 hPa 0,0 l/m 23,9 km/h (4 Bft) SW45 220 0 min 6,98 klux 0,00 min 6,9 C 2,9 C
18.06.2011 21:01 10,7 C 78 % 1006 hPa 0,0 l/m 24,0 km/h (4 Bft) SW45 230 0 min 6,89 klux 0,00 min 7,0 C 3,0 C
18.06.2011 21:16 10,4 C 79 % 1006 hPa 0,0 l/m 19,7 km/h (3 Bft) SW45 215 0 min 3,84 klux 0,00 min 6,9 C 3,9 C
18.06.2011 21:31 9,9 C 80 % 1006 hPa 0,0 l/m 24,8 km/h (4 Bft) SW45 230 0 min 1,71 klux 0,00 min 6,6 C 1,7 C
18.06.2011 21:46 9,5 C 81 % 1007 hPa 0,0 l/m 20,4 km/h (4 Bft) SW45 225 0 min 1,05 klux 0,00 min 6,4 C 2,5 C
18.06.2011 22:01 9,4 C 83 % 1007 hPa 0,0 l/m 27,5 km/h (4 Bft) SW45 225 0 min 388 lux 0,00 min 6,7 C 0,4 C
18.06.2011 22:16 9,5 C 84 % 1007 hPa 0,0 l/m 21,6 km/h (4 Bft) SW22.5 225 0 min 36 lux 0,00 min 6,9 C 2,1 C
18.06.2011 22:31 9,5 C 86 % 1007 hPa 0,0 l/m 38,7 km/h (5 Bft) W-SW45 245 0 min 1 lux 0,00 min 7,3 C -1,7 C
18.06.2011 22:46 9,0 C 87 % 1007 hPa 0,0 l/m 39,0 km/h (6 Bft) SW22.5 215 0 min 0 lux 0,00 min 7,0 C -2,4 C
18.06.2011 23:01 8,5 C 88 % 1007 hPa 0,0 l/m 30,5 km/h (5 Bft) W-SW45 255 0 min 0 lux 0,00 min 6,6 C -1,6 C
18.06.2011 23:16 8,4 C 90 % 1007 hPa 0,0 l/m 36,2 km/h (5 Bft) W-SW45 250 0 min 0 lux 0,00 min 6,9 C -2,8 C
18.06.2011 23:32 8,3 C 90 % 1007 hPa 0,0 l/m 18,3 km/h (3 Bft) W22.5 260 0 min 0 lux 0,00 min 6,8 C 1,7 C
18.06.2011 23:46 8,0 C 91 % 1007 hPa 0,0 l/m 22,5 km/h (4 Bft) SW45 225 0 min 0 lux 0,00 min 6,6 C -0,1 C
_ Min-Zeit 23:46 14:46 03:40 - 00:10 - - - - - 21:46 23:16
Minimum _ 8,0 C 63 % 1002 hPa - 0,0 km/h (0 Bft) - - - - - 6,4 C -2,8 C
_ Max-Zeit 16:01 04:55 21:46 17:01 13:01 - - 14:17 12:46 01:10 02:40 00:10
Maximum _ 15,3 C 94 % 1007 hPa 1,8 l/m 57,5 km/h
W (7 Bft)
- - 16 min 126 klux 15,00 min 11,2 C 11,3 C
Durchschnitt _ 11,8 C 82 % 1005 hPa #5,4 l/m 34,6 km/h (5 Bft) W-SW - #4:30 h 28,3 klux #1:45 h 8,8 C 2,8 C